Time;durP1;ratioP1;P1;durP2;ratioP2;P2;SDS_P1;SDS_P2;PMS_P1;PMS_P2;Temp;Humidity;BMP_temperature;BMP_pressure;BME280_temperature;BME280_humidity;BME280_pressure;Samples;Min_cycle;Max_cycle;Signal;HPM_P1;HPM_P2
2023/01/07 00:01:07;;;;;;;49.50;33.05;;;8.30;99.90;;;;;;5002707;28;20056;-65
2023/01/07 00:03:33;;;;;;;45.75;32.42;;;8.30;99.90;;;;;;5020412;28;20123;-64
2023/01/07 00:06:10;;;;;;;48.65;32.85;;;8.30;99.90;;;;;;5039640;28;20386;-63
2023/01/07 00:08:37;;;;;;;50.25;33.85;;;8.30;99.90;;;;;;5004362;28;20037;-64
2023/01/07 00:11:05;;;;;;;47.92;31.15;;;8.50;99.90;;;;;;5037877;28;20315;-64
2023/01/07 00:13:31;;;;;;;52.42;34.72;;;8.40;99.90;;;;;;5038441;28;20083;-62
2023/01/07 00:16:06;;;;;;;51.20;33.53;;;8.40;99.90;;;;;;5020936;28;20079;-63
2023/01/07 00:18:31;;;;;;;50.15;34.65;;;8.40;99.90;;;;;;5025842;28;20040;-64
2023/01/07 00:20:58;;;;;;;54.90;35.78;;;8.40;99.90;;;;;;5020081;28;20049;-64
2023/01/07 00:23:25;;;;;;;52.97;34.97;;;8.50;99.90;;;;;;5038309;28;20384;-64
2023/01/07 00:25:57;;;;;;;55.13;37.58;;;8.60;99.90;;;;;;5037656;28;20032;-64
2023/01/07 00:28:23;;;;;;;52.33;35.70;;;8.70;99.90;;;;;;5019596;28;20144;-64
2023/01/07 00:30:49;;;;;;;53.35;37.03;;;8.60;99.90;;;;;;5019632;28;20047;-64
2023/01/07 00:33:15;;;;;;;56.88;38.58;;;8.70;99.90;;;;;;5038253;28;20051;-64
2023/01/07 00:35:43;;;;;;;54.28;37.58;;;8.60;99.90;;;;;;5038220;28;20056;-64
2023/01/07 00:38:10;;;;;;;58.13;38.28;;;8.70;99.90;;;;;;5003042;28;20152;-64
2023/01/07 00:40:36;;;;;;;59.50;39.30;;;8.80;99.90;;;;;;5003114;28;20372;-64
2023/01/07 00:43:05;;;;;;;61.50;40.40;;;8.80;99.90;;;;;;5002675;28;20425;-64
2023/01/07 00:45:33;;;;;;;63.83;41.78;;;8.90;99.90;;;;;;5037831;28;20454;-63
2023/01/07 00:48:00;;;;;;;60.30;40.45;;;9.10;99.90;;;;;;5037349;28;20040;-63
2023/01/07 00:50:29;;;;;;;60.50;38.95;;;9.00;99.90;;;;;;5037884;28;21220;-63
2023/01/07 00:52:55;;;;;;;60.83;39.40;;;8.90;99.90;;;;;;5018842;28;20142;-63
2023/01/07 00:55:22;;;;;;;55.88;39.80;;;9.20;99.90;;;;;;5000592;28;20052;-63
2023/01/07 00:57:49;;;;;;;58.70;41.00;;;9.20;99.90;;;;;;5038373;28;20066;-63
2023/01/07 01:00:17;;;;;;;56.17;39.60;;;9.30;99.90;;;;;;5036634;28;20601;-64
2023/01/07 01:02:43;;;;;;;50.92;34.88;;;9.30;99.90;;;;;;5020092;28;20048;-64
2023/01/07 01:05:09;;;;;;;45.90;36.13;;;9.20;99.90;;;;;;5002557;28;20060;-63
2023/01/07 01:07:36;;;;;;;44.53;33.47;;;9.40;99.90;;;;;;5038106;28;20102;-64
2023/01/07 01:10:03;;;;;;;45.25;34.55;;;9.40;99.90;;;;;;5036218;28;20577;-64
2023/01/07 01:12:29;;;;;;;45.90;36.78;;;9.40;99.90;;;;;;4999182;28;20053;-63
2023/01/07 01:14:54;;;;;;;45.13;34.25;;;9.50;99.90;;;;;;4978338;28;20045;-64
2023/01/07 01:17:21;;;;;;;49.38;35.15;;;9.70;99.90;;;;;;5016623;28;20492;-64
2023/01/07 01:19:47;;;;;;;54.63;38.10;;;9.50;99.90;;;;;;4999373;28;20045;-64
2023/01/07 01:22:12;;;;;;;54.20;35.85;;;9.70;99.90;;;;;;5016354;28;20041;-64
2023/01/07 01:24:38;;;;;;;53.78;38.17;;;9.70;99.90;;;;;;5018046;28;20044;-63
2023/01/07 01:27:04;;;;;;;55.95;37.38;;;9.50;99.90;;;;;;5017985;28;20048;-64
2023/01/07 01:29:29;;;;;;;58.45;39.00;;;9.50;99.90;;;;;;5017458;28;20045;-63
2023/01/07 01:31:55;;;;;;;52.80;35.78;;;9.60;99.90;;;;;;5000202;28;20247;-63
2023/01/07 01:34:21;;;;;;;56.05;36.63;;;9.50;99.90;;;;;;5016944;28;20477;-63
2023/01/07 01:36:47;;;;;;;53.72;36.22;;;9.80;99.90;;;;;;4998935;28;20565;-63
2023/01/07 01:39:12;;;;;;;54.92;36.38;;;9.60;99.90;;;;;;5017368;28;20091;-65
2023/01/07 01:41:38;;;;;;;56.40;37.25;;;9.60;99.90;;;;;;5016389;28;20119;-63
2023/01/07 01:44:32;;;;;;;56.55;35.65;;;9.60;99.90;;;;;;4992058;28;20052;-64
2023/01/07 01:46:58;;;;;;;54.75;36.22;;;9.60;99.90;;;;;;4998131;28;20037;-63
2023/01/07 01:49:32;;;;;;;54.13;35.20;;;9.70;99.90;;;;;;4998701;28;20053;-64
2023/01/07 01:52:06;;;;;;;60.17;37.22;;;9.70;99.90;;;;;;5014982;28;20518;-66
2023/01/07 01:54:33;;;;;;;61.55;39.72;;;9.70;99.90;;;;;;5016764;28;20045;-64
2023/01/07 01:57:02;;;;;;;55.38;37.13;;;9.80;99.90;;;;;;4999219;28;20419;-64
2023/01/07 01:59:33;;;;;;;59.13;38.42;;;9.60;99.90;;;;;;5015290;28;20819;-64
2023/01/07 02:01:58;;;;;;;62.97;39.33;;;9.70;99.90;;;;;;5015515;28;20497;-63
2023/01/07 02:04:26;;;;;;;57.42;36.80;;;9.70;99.90;;;;;;5014963;28;20038;-63
2023/01/07 02:07:15;;;;;;;63.05;37.47;;;9.80;99.90;;;;;;4999340;28;20052;-63
2023/01/07 02:09:40;;;;;;;58.65;38.53;;;10.00;99.90;;;;;;5024977;28;20041;-64
2023/01/07 02:12:29;;;;;;;55.38;37.33;;;9.90;99.90;;;;;;4997446;28;20096;-65
2023/01/07 02:15:22;;;;;;;57.55;36.95;;;9.80;99.90;;;;;;5016158;28;20083;-65
2023/01/07 02:18:03;;;;;;;55.20;35.50;;;10.10;99.90;;;;;;5016072;28;20599;-65
2023/01/07 02:21:00;;;;;;;57.85;36.42;;;10.10;99.90;;;;;;5015168;28;20406;-64
2023/01/07 02:23:38;;;;;;;58.38;37.42;;;9.80;99.90;;;;;;4998219;28;20045;-65
2023/01/07 02:26:41;;;;;;;57.70;35.85;;;9.80;99.90;;;;;;5014327;28;20047;-65
2023/01/07 02:29:35;;;;;;;59.97;38.22;;;9.90;99.90;;;;;;5016238;28;20033;-65
2023/01/07 02:32:32;;;;;;;54.92;35.60;;;9.90;99.90;;;;;;4991679;28;20399;-64
2023/01/07 02:35:30;;;;;;;54.88;35.75;;;10.10;99.90;;;;;;5035990;28;20041;-65
2023/01/07 02:38:03;;;;;;;56.13;36.45;;;10.00;99.90;;;;;;5014507;28;20052;-65
2023/01/07 02:40:57;;;;;;;54.15;34.47;;;10.10;99.90;;;;;;4998253;28;20037;-64
2023/01/07 02:43:52;;;;;;;57.17;35.55;;;10.00;99.90;;;;;;4998245;28;20479;-65
2023/01/07 02:46:36;;;;;;;56.33;37.03;;;10.00;99.90;;;;;;4992783;28;20056;-64
2023/01/07 02:49:08;;;;;;;58.95;37.65;;;10.20;99.90;;;;;;5014342;28;20045;-65
2023/01/07 02:51:36;;;;;;;57.87;37.13;;;10.20;99.90;;;;;;5016275;28;20037;-65
2023/01/07 02:54:04;;;;;;;50.35;35.00;;;10.00;99.90;;;;;;5015115;28;20376;-66
2023/01/07 02:56:48;;;;;;;53.92;37.05;;;10.10;99.90;;;;;;5017623;28;20038;-65
2023/01/07 02:59:52;;;;;;;58.60;38.42;;;10.10;99.90;;;;;;5000723;28;20033;-64
2023/01/07 03:03:01;;;;;;;59.13;38.17;;;10.30;99.90;;;;;;5000324;28;20045;-63
2023/01/07 03:05:40;;;;;;;56.38;36.97;;;10.10;99.90;;;;;;5018405;28;20366;-66
2023/01/07 03:08:34;;;;;;;52.05;36.63;;;10.40;99.90;;;;;;5017984;28;20041;-66
2023/01/07 03:11:03;;;;;;;59.38;38.42;;;10.20;99.90;;;;;;5019936;28;20437;-66
2023/01/07 03:13:39;;;;;;;51.45;37.80;;;10.40;99.90;;;;;;4989982;28;20488;-66
2023/01/07 03:16:28;;;;;;;51.42;36.85;;;10.10;99.90;;;;;;5001136;28;20818;-65
2023/01/07 03:19:05;;;;;;;55.17;38.17;;;10.20;99.90;;;;;;5015694;28;20046;-65
2023/01/07 03:21:34;;;;;;;44.70;35.58;;;10.30;99.90;;;;;;5018677;28;20056;-66
2023/01/07 03:24:01;;;;;;;43.60;34.17;;;10.10;99.90;;;;;;5017487;28;20037;-64
2023/01/07 03:26:41;;;;;;;50.40;37.88;;;10.50;99.90;;;;;;5001237;28;20041;-65
2023/01/07 03:29:09;;;;;;;48.97;38.92;;;10.50;99.90;;;;;;5017032;28;20072;-64
2023/01/07 03:31:41;;;;;;;40.28;34.17;;;10.30;99.90;;;;;;5017894;28;20362;-65
2023/01/07 03:34:10;;;;;;;43.90;37.00;;;10.10;99.90;;;;;;4990014;28;20099;-65
2023/01/07 03:36:43;;;;;;;40.40;34.28;;;10.50;99.90;;;;;;5017181;28;20042;-65
2023/01/07 03:39:11;;;;;;;38.15;34.00;;;10.10;99.90;;;;;;5018262;28;20030;-64
2023/01/07 03:44:24;;;;;;;37.20;33.28;;;10.10;99.90;;;;;;5012792;28;20088;-64
2023/01/07 03:46:51;;;;;;;40.40;36.05;;;10.30;99.90;;;;;;5019036;28;20132;-66
2023/01/07 03:49:17;;;;;;;37.65;33.70;;;10.40;99.90;;;;;;5018927;28;20054;-65
2023/01/07 03:51:44;;;;;;;38.35;34.42;;;10.40;99.90;;;;;;5027317;28;20057;-65
2023/01/07 03:54:10;;;;;;;33.63;30.13;;;10.50;99.90;;;;;;5016385;28;20049;-65
2023/01/07 03:56:36;;;;;;;35.75;32.28;;;10.40;99.90;;;;;;5017594;28;20530;-65
2023/01/07 03:59:02;;;;;;;38.47;34.45;;;10.30;99.90;;;;;;5018061;28;20145;-65
2023/01/07 04:01:27;;;;;;;36.25;32.60;;;10.20;99.90;;;;;;4996892;28;20072;-65
2023/01/07 04:03:53;;;;;;;36.03;32.42;;;10.20;99.90;;;;;;5015834;28;20040;-65
2023/01/07 04:06:19;;;;;;;34.63;31.33;;;10.50;99.90;;;;;;4998729;28;20049;-65
2023/01/07 04:08:44;;;;;;;36.08;32.58;;;10.50;99.90;;;;;;4994235;28;20041;-65
2023/01/07 04:11:10;;;;;;;33.33;30.13;;;10.30;99.90;;;;;;5016266;28;20044;-65
2023/01/07 04:13:36;;;;;;;34.90;31.55;;;10.30;99.90;;;;;;4983269;28;20049;-65
2023/01/07 04:16:02;;;;;;;35.80;32.30;;;10.60;99.90;;;;;;5018109;28;20041;-65
2023/01/07 04:18:27;;;;;;;33.67;30.38;;;10.40;99.90;;;;;;5017732;28;20087;-66
2023/01/07 04:20:53;;;;;;;33.13;29.92;;;10.60;99.90;;;;;;4999834;28;20140;-65
2023/01/07 04:23:19;;;;;;;34.08;30.85;;;10.30;99.90;;;;;;5000289;28;20046;-63
2023/01/07 04:25:48;;;;;;;32.33;29.30;;;10.40;99.90;;;;;;5000460;28;20064;-63
2023/01/07 04:28:14;;;;;;;29.77;26.80;;;10.20;99.90;;;;;;5018441;28;20177;-63
2023/01/07 04:30:40;;;;;;;30.65;27.85;;;10.40;99.90;;;;;;4999813;28;20136;-63
2023/01/07 04:33:06;;;;;;;32.03;28.88;;;10.60;99.90;;;;;;5018736;28;20041;-62
2023/01/07 04:35:32;;;;;;;31.23;28.20;;;10.30;99.90;;;;;;5006748;28;20057;-63
2023/01/07 04:37:58;;;;;;;31.23;28.17;;;10.30;99.90;;;;;;5017467;28;20128;-62
2023/01/07 04:40:24;;;;;;;32.28;29.25;;;10.60;99.90;;;;;;5017130;28;20032;-63
2023/01/07 04:42:50;;;;;;;29.30;26.63;;;10.60;99.90;;;;;;5000602;28;20041;-64
2023/01/07 04:45:15;;;;;;;29.75;26.95;;;10.50;99.90;;;;;;5017268;28;20084;-62
2023/01/07 04:47:41;;;;;;;28.98;26.23;;;10.40;99.90;;;;;;4988080;28;20041;-63
2023/01/07 04:50:07;;;;;;;28.00;25.30;;;10.40;99.90;;;;;;5016864;28;20048;-63
2023/01/07 04:52:33;;;;;;;27.70;25.10;;;10.40;99.90;;;;;;5017881;28;20053;-63
2023/01/07 04:54:59;;;;;;;29.05;26.25;;;10.60;99.90;;;;;;5018376;28;20041;-63
2023/01/07 04:57:24;;;;;;;26.88;24.23;;;10.30;99.90;;;;;;5018130;28;20041;-62
2023/01/07 04:59:50;;;;;;;26.90;24.35;;;10.40;99.90;;;;;;5015504;28;20506;-63
2023/01/07 05:02:16;;;;;;;28.42;25.52;;;10.60;99.90;;;;;;5000558;28;20049;-63
2023/01/07 05:04:41;;;;;;;27.02;24.55;;;10.60;99.90;;;;;;5001545;28;20049;-63
2023/01/07 05:07:07;;;;;;;26.83;24.33;;;10.50;99.90;;;;;;4998940;28;20044;-62
2023/01/07 05:09:33;;;;;;;26.98;24.33;;;10.50;99.90;;;;;;5017318;28;20042;-65
2023/01/07 05:11:59;;;;;;;28.02;25.33;;;10.50;99.90;;;;;;5015385;28;20136;-65
2023/01/07 05:14:24;;;;;;;27.25;24.70;;;10.60;99.90;;;;;;5014352;28;20164;-64
2023/01/07 05:16:50;;;;;;;27.02;24.33;;;10.50;99.90;;;;;;5000428;28;20300;-65
2023/01/07 05:19:16;;;;;;;26.40;23.83;;;10.60;99.90;;;;;;5015244;28;20058;-65
2023/01/07 05:21:41;;;;;;;28.08;25.30;;;10.50;99.90;;;;;;4998513;28;20045;-66
2023/01/07 05:24:07;;;;;;;30.27;25.23;;;10.40;99.90;;;;;;5003663;28;20136;-65
2023/01/07 05:26:33;;;;;;;25.98;23.38;;;10.50;99.90;;;;;;4984717;28;20127;-65
2023/01/07 05:28:59;;;;;;;27.23;24.63;;;10.40;99.90;;;;;;4999603;28;20080;-64
2023/01/07 05:31:25;;;;;;;26.52;24.02;;;10.40;99.90;;;;;;5015742;28;20084;-64
2023/01/07 05:33:50;;;;;;;24.48;21.88;;;10.60;99.90;;;;;;5015447;28;20041;-65
2023/01/07 05:36:16;;;;;;;28.02;25.20;;;10.60;99.90;;;;;;4996621;28;20055;-64
2023/01/07 05:38:42;;;;;;;26.05;23.48;;;10.50;99.90;;;;;;5015404;28;20511;-64
2023/01/07 05:41:07;;;;;;;27.65;24.63;;;10.40;99.90;;;;;;5014152;28;20392;-64
2023/01/07 05:43:33;;;;;;;24.70;22.30;;;10.50;99.90;;;;;;5016177;28;20045;-65
2023/01/07 05:45:59;;;;;;;25.92;23.23;;;10.50;99.90;;;;;;5016696;28;20069;-66
2023/01/07 05:48:25;;;;;;;25.17;22.13;;;10.40;99.90;;;;;;5015973;28;20030;-66
2023/01/07 05:50:50;;;;;;;20.00;18.10;;;10.60;99.90;;;;;;5015465;28;20048;-66
2023/01/07 05:53:16;;;;;;;24.95;22.30;;;10.50;99.90;;;;;;5014492;28;20389;-65
2023/01/07 05:55:42;;;;;;;23.08;20.75;;;10.50;99.90;;;;;;5015706;28;20077;-65
2023/01/07 05:58:08;;;;;;;22.08;20.00;;;10.50;99.90;;;;;;4997117;28;20029;-65
2023/01/07 06:00:35;;;;;;;20.00;18.10;;;10.50;99.90;;;;;;4997393;28;20115;-66
2023/01/07 06:03:02;;;;;;;18.40;16.60;;;10.40;99.90;;;;;;5014202;28;20578;-65
2023/01/07 06:05:28;;;;;;;20.00;17.90;;;10.50;99.90;;;;;;5014755;28;20507;-65
2023/01/07 06:07:54;;;;;;;19.88;18.05;;;10.50;99.90;;;;;;5015700;28;20064;-66
2023/01/07 06:10:20;;;;;;;21.73;18.75;;;10.50;99.90;;;;;;5014536;28;20471;-65
2023/01/07 06:12:45;;;;;;;19.58;17.52;;;10.50;99.90;;;;;;5026650;28;20142;-65
2023/01/07 06:15:11;;;;;;;17.90;16.10;;;10.40;99.90;;;;;;5002652;28;20037;-65
2023/01/07 06:17:37;;;;;;;18.90;16.90;;;10.50;99.90;;;;;;5018313;28;20510;-65
2023/01/07 06:20:03;;;;;;;17.55;15.85;;;10.50;99.90;;;;;;5017703;28;20045;-65
2023/01/07 06:22:29;;;;;;;17.52;15.93;;;10.40;99.90;;;;;;5018723;28;20167;-66
2023/01/07 06:24:54;;;;;;;16.85;15.05;;;10.50;99.90;;;;;;5018323;28;20133;-65
2023/01/07 06:27:20;;;;;;;17.10;15.15;;;10.50;99.90;;;;;;5036598;28;20151;-65
2023/01/07 06:29:46;;;;;;;16.73;15.05;;;10.50;99.90;;;;;;5019454;28;20037;-64
2023/01/07 06:32:11;;;;;;;16.65;15.00;;;10.40;99.90;;;;;;5021051;28;20494;-65
2023/01/07 06:34:37;;;;;;;18.75;15.52;;;10.40;99.90;;;;;;5021758;28;20383;-66
2023/01/07 06:37:03;;;;;;;17.73;15.90;;;10.40;99.90;;;;;;5007664;28;20045;-65
2023/01/07 06:39:28;;;;;;;17.10;14.32;;;10.50;99.90;;;;;;5021796;28;20037;-66
2023/01/07 06:41:54;;;;;;;20.00;14.75;;;10.40;99.90;;;;;;5039248;28;20041;-65
2023/01/07 06:44:20;;;;;;;16.17;14.18;;;10.50;99.90;;;;;;5041328;28;20534;-62
2023/01/07 06:46:45;;;;;;;15.77;13.07;;;10.40;99.90;;;;;;5023800;28;20473;-63
2023/01/07 06:49:11;;;;;;;17.73;14.07;;;10.40;99.90;;;;;;5038347;28;20525;-63
2023/01/07 06:51:37;;;;;;;14.57;13.15;;;10.30;99.90;;;;;;5021503;28;20049;-62
2023/01/07 06:54:03;;;;;;;14.38;12.55;;;10.40;99.90;;;;;;5022163;28;20108;-63
2023/01/07 06:56:28;;;;;;;14.25;12.85;;;10.40;99.90;;;;;;5039601;28;20045;-64
2023/01/07 06:58:54;;;;;;;13.40;11.75;;;10.30;99.90;;;;;;5040446;28;20098;-64
2023/01/07 07:01:20;;;;;;;15.00;12.93;;;10.40;99.90;;;;;;5039950;28;20051;-63
2023/01/07 07:03:45;;;;;;;13.82;12.25;;;10.30;99.90;;;;;;5041125;28;20032;-62
2023/01/07 07:06:11;;;;;;;12.65;11.45;;;10.30;99.90;;;;;;5039764;28;20037;-63
2023/01/07 07:08:37;;;;;;;13.50;10.23;;;10.40;99.90;;;;;;5027080;28;20041;-63
2023/01/07 07:11:03;;;;;;;15.77;11.95;;;10.30;99.90;;;;;;5023595;28;20399;-62
2023/01/07 07:13:28;;;;;;;12.55;10.68;;;10.30;99.90;;;;;;5041341;28;20132;-64
2023/01/07 07:15:54;;;;;;;12.50;11.23;;;10.30;99.90;;;;;;5009668;28;20044;-62
2023/01/07 07:18:20;;;;;;;13.48;12.07;;;10.40;99.90;;;;;;5025464;28;20119;-63
2023/01/07 07:20:46;;;;;;;14.00;12.50;;;10.20;99.90;;;;;;5044268;28;20368;-63
2023/01/07 07:23:12;;;;;;;12.20;10.75;;;10.20;99.90;;;;;;5044142;28;20067;-63
2023/01/07 07:25:38;;;;;;;11.82;9.52;;;10.30;99.90;;;;;;5044144;28;20055;-63
2023/01/07 07:28:04;;;;;;;12.13;10.15;;;10.30;99.90;;;;;;5025187;28;20033;-62
2023/01/07 07:30:30;;;;;;;13.15;11.85;;;10.20;99.90;;;;;;5040900;28;20032;-64
2023/01/07 07:33:00;;;;;;;13.93;12.15;;;10.30;99.90;;;;;;5023500;28;20069;-64
2023/01/07 07:35:25;;;;;;;13.88;12.48;;;10.10;99.90;;;;;;5039705;28;20130;-65
2023/01/07 07:37:51;;;;;;;14.23;11.93;;;10.20;99.90;;;;;;5039638;28;20079;-65
2023/01/07 07:40:17;;;;;;;13.98;11.73;;;10.20;99.90;;;;;;5003001;28;20052;-65
2023/01/07 07:42:42;;;;;;;12.23;10.95;;;10.20;99.90;;;;;;5021701;28;21034;-66
2023/01/07 07:45:11;;;;;;;12.27;11.10;;;10.20;99.90;;;;;;5021356;28;20040;-65
2023/01/07 07:47:37;;;;;;;15.82;11.95;;;10.20;99.90;;;;;;5038106;28;20338;-64
2023/01/07 07:50:03;;;;;;;12.77;10.20;;;10.20;99.90;;;;;;4988662;28;20086;-65
2023/01/07 07:52:29;;;;;;;12.57;10.55;;;10.20;99.90;;;;;;4989228;28;20107;-64
2023/01/07 07:54:55;;;;;;;12.20;11.00;;;10.20;99.90;;;;;;5038391;28;20041;-65
2023/01/07 07:57:21;;;;;;;14.40;10.13;;;10.20;99.90;;;;;;5021177;28;20471;-65
2023/01/07 07:59:47;;;;;;;11.13;9.95;;;10.20;99.90;;;;;;5020948;28;20087;-64
2023/01/07 08:02:13;;;;;;;11.75;10.40;;;10.20;99.90;;;;;;5019407;28;20056;-65
2023/01/07 08:04:39;;;;;;;13.10;10.70;;;10.10;99.90;;;;;;5002585;28;20041;-65
2023/01/07 08:07:05;;;;;;;11.45;9.52;;;10.30;99.90;;;;;;5003728;28;20502;-63
2023/01/07 08:09:31;;;;;;;12.25;9.95;;;10.10;99.90;;;;;;5022059;28;20116;-63
2023/01/07 08:11:58;;;;;;;15.98;10.73;;;10.20;99.90;;;;;;5007054;28;20056;-64
2023/01/07 08:14:24;;;;;;;11.98;10.32;;;10.30;99.90;;;;;;5041960;28;20129;-65
2023/01/07 08:16:50;;;;;;;12.00;9.05;;;10.20;99.90;;;;;;5024498;28;20053;-66
2023/01/07 08:19:16;;;;;;;9.52;8.52;;;10.20;99.90;;;;;;5023975;28;20406;-65
2023/01/07 08:21:43;;;;;;;11.93;8.90;;;10.20;99.90;;;;;;5007952;28;20057;-66
2023/01/07 08:24:09;;;;;;;11.18;8.85;;;10.20;99.90;;;;;;5024262;28;20126;-64
2023/01/07 08:26:34;;;;;;;10.43;9.35;;;10.10;99.90;;;;;;5023851;28;20056;-65
2023/01/07 08:29:00;;;;;;;13.10;9.05;;;10.30;99.90;;;;;;5042126;28;20124;-65
2023/01/07 08:31:26;;;;;;;9.40;8.43;;;10.20;99.90;;;;;;5041923;28;20410;-66
2023/01/07 08:33:51;;;;;;;8.52;7.53;;;10.10;99.90;;;;;;5007462;28;20043;-65
2023/01/07 08:36:17;;;;;;;9.73;7.88;;;10.10;99.90;;;;;;5007599;28;20057;-65
2023/01/07 08:38:43;;;;;;;9.50;8.15;;;10.30;99.90;;;;;;5023690;28;20045;-64
2023/01/07 08:41:08;;;;;;;8.63;6.88;;;10.10;99.90;;;;;;4991391;28;20045;-65
2023/01/07 08:43:34;;;;;;;8.48;7.60;;;10.30;99.90;;;;;;4992084;28;20044;-62
2023/01/07 08:46:01;;;;;;;7.90;6.95;;;10.20;99.90;;;;;;5042593;28;20045;-64
2023/01/07 08:48:26;;;;;;;9.70;6.47;;;10.20;99.90;;;;;;5024097;28;20106;-62
2023/01/07 08:50:53;;;;;;;8.82;7.00;;;10.30;99.90;;;;;;5042300;28;20048;-63
2023/01/07 08:53:19;;;;;;;8.65;6.43;;;10.30;99.90;;;;;;5023497;28;20044;-65
2023/01/07 08:55:45;;;;;;;7.05;5.75;;;10.20;99.90;;;;;;5024348;28;20049;-63
2023/01/07 08:58:11;;;;;;;7.28;5.68;;;10.30;99.90;;;;;;5023563;28;20150;-64
2023/01/07 09:00:37;;;;;;;6.85;5.65;;;10.30;99.90;;;;;;5023216;28;20490;-64
2023/01/07 09:03:02;;;;;;;6.50;5.47;;;10.30;99.90;;;;;;5007496;28;20048;-64
2023/01/07 09:05:28;;;;;;;6.63;5.85;;;10.30;99.90;;;;;;5023504;28;20502;-65
2023/01/07 09:07:55;;;;;;;6.78;5.68;;;10.40;99.90;;;;;;5024278;28;20546;-64
2023/01/07 09:10:21;;;;;;;7.57;5.10;;;10.30;99.90;;;;;;5040532;28;20029;-63
2023/01/07 09:12:47;;;;;;;8.45;5.38;;;10.50;99.90;;;;;;5023597;28;21058;-63
2023/01/07 09:15:12;;;;;;;7.20;5.40;;;10.50;99.90;;;;;;5041466;28;20409;-64
2023/01/07 09:17:38;;;;;;;7.03;5.00;;;10.50;99.90;;;;;;5041585;28;20036;-62
2023/01/07 09:20:05;;;;;;;7.63;5.03;;;10.50;99.90;;;;;;5023247;28;20041;-62
2023/01/07 09:22:33;;;;;;;7.75;5.35;;;10.60;99.90;;;;;;5007250;28;20106;-64
2023/01/07 09:24:58;;;;;;;6.05;5.10;;;10.50;99.90;;;;;;5024156;28;20131;-64
2023/01/07 09:27:25;;;;;;;6.95;4.32;;;10.50;99.90;;;;;;5023733;28;20170;-63
2023/01/07 09:29:52;;;;;;;5.75;4.75;;;10.50;99.90;;;;;;5039524;28;20045;-64
2023/01/07 09:32:19;;;;;;;8.57;5.07;;;10.40;99.90;;;;;;5006288;28;20105;-65
2023/01/07 09:34:45;;;;;;;6.63;4.88;;;10.40;99.90;;;;;;5023107;28;20537;-64
2023/01/07 09:37:11;;;;;;;5.80;4.82;;;10.40;99.90;;;;;;5006774;28;20124;-65
2023/01/07 09:39:36;;;;;;;6.10;4.78;;;10.40;99.90;;;;;;5023289;28;20163;-64
2023/01/07 09:42:06;;;;;;;6.05;4.53;;;10.40;99.90;;;;;;5041123;28;20053;-64
2023/01/07 09:44:43;;;;;;;5.15;4.53;;;10.40;99.90;;;;;;5023183;28;21332;-63
2023/01/07 09:47:13;;;;;;;6.85;4.90;;;10.40;92.80;;;;;;5041102;28;20123;-65
2023/01/07 09:49:40;;;;;;;6.50;3.97;;;10.40;99.90;;;;;;5006687;28;20126;-64
2023/01/07 09:52:26;;;;;;;5.10;4.00;;;10.40;96.60;;;;;;5023027;28;20068;-65
2023/01/07 09:54:59;;;;;;;6.15;4.15;;;10.40;27.10;;;;;;5009020;28;20136;-64
2023/01/07 09:57:26;;;;;;;;;;;10.40;52.40;;;;;;5041559;28;20037;-63
2023/01/07 09:59:52;;;;;;;5.03;2.92;;;10.30;1.00;;;;;;5022631;28;19920;-63
2023/01/07 10:02:30;;;;;;;4.20;3.53;;;10.40;33.20;;;;;;5023171;28;20932;-67
2023/01/07 10:05:19;;;;;;;6.88;3.60;;;10.40;1.00;;;;;;5009777;28;20045;-65
2023/01/07 10:07:58;;;;;;;4.72;4.05;;;10.50;1.00;;;;;;5011076;28;20047;-65
2023/01/07 10:10:38;;;;;;;4.90;3.25;;;10.50;1.00;;;;;;5010689;28;20401;-65
2023/01/07 10:13:38;;;;;;;6.60;3.53;;;10.50;1.00;;;;;;5026944;28;20049;-66
2023/01/07 10:16:19;;;;;;;4.25;3.33;;;10.50;1.00;;;;;;5026460;28;20060;-65
2023/01/07 10:19:18;;;;;;;2.97;2.70;;;10.70;1.00;;;;;;5043179;28;20053;-65
2023/01/07 10:22:27;;;;;;;3.08;2.50;;;10.70;99.90;;;;;;5030879;28;20098;-63
2023/01/07 10:24:59;;;;;;;6.65;2.80;;;10.80;99.90;;;;;;5027955;28;20106;-63
2023/01/07 10:27:37;;;;;;;4.63;2.65;;;10.90;1.00;;;;;;5028116;28;20045;-64
2023/01/07 10:30:09;;;;;;;2.92;2.10;;;10.90;99.90;;;;;;5045850;28;20507;-64
2023/01/07 10:32:35;;;;;;;4.13;1.98;;;10.80;99.90;;;;;;5045620;28;20045;-64
2023/01/07 10:35:02;;;;;;;4.18;2.08;;;10.80;99.90;;;;;;5045507;28;20214;-64
2023/01/07 10:37:32;;;;;;;5.32;2.38;;;10.80;99.90;;;;;;5045468;28;20040;-64
2023/01/07 10:40:33;;;;;;;4.70;2.60;;;10.70;99.90;;;;;;5045567;28;20045;-64
2023/01/07 10:43:20;;;;;;;4.53;2.40;;;10.80;99.90;;;;;;5027423;28;20059;-64
2023/01/07 10:46:19;;;;;;;3.38;2.20;;;10.70;99.90;;;;;;5045515;28;20041;-64
2023/01/07 10:48:54;;;;;;;2.63;2.25;;;10.90;99.90;;;;;;5027293;28;20052;-62
2023/01/07 10:51:56;;;;;;;3.42;2.13;;;11.00;99.90;;;;;;5045306;28;20387;-64
2023/01/07 10:54:30;;;;;;;2.25;1.70;;;11.20;99.90;;;;;;5039629;28;20235;-64
2023/01/07 10:57:02;;;;;;;1.75;1.23;;;11.30;99.90;;;;;;5045216;28;20459;-64
2023/01/07 10:59:28;;;;;;;3.53;1.55;;;11.20;99.90;;;;;;5044979;28;20063;-63
2023/01/07 11:01:56;;;;;;;2.58;1.80;;;11.10;99.90;;;;;;5027184;28;20041;-64
2023/01/07 11:04:23;;;;;;;2.75;1.45;;;11.00;99.90;;;;;;5044992;28;20136;-64
2023/01/07 11:06:58;;;;;;;2.70;1.35;;;10.90;99.90;;;;;;5044808;28;20114;-63
2023/01/07 11:09:34;;;;;;;2.45;1.10;;;10.80;99.90;;;;;;5027059;28;20056;-64
2023/01/07 11:12:31;;;;;;;2.08;1.23;;;10.80;99.90;;;;;;5026271;28;20049;-65
2023/01/07 11:14:59;;;;;;;4.03;1.40;;;10.80;99.90;;;;;;5043796;28;20045;-64
2023/01/07 11:17:37;;;;;;;1.70;1.00;;;10.80;99.90;;;;;;5044577;28;20525;-64
2023/01/07 11:20:03;;;;;;;2.75;1.42;;;10.80;99.90;;;;;;5044246;28;20499;-64
2023/01/07 11:22:34;;;;;;;3.78;1.73;;;10.80;99.90;;;;;;5044386;28;20319;-66
2023/01/07 11:25:02;;;;;;;1.98;1.40;;;10.80;99.90;;;;;;5044544;28;20107;-64
2023/01/07 11:27:31;;;;;;;2.67;1.35;;;10.80;99.90;;;;;;5044470;28;20091;-64
2023/01/07 11:29:59;;;;;;;2.42;1.40;;;10.90;99.90;;;;;;5044648;28;20170;-64
2023/01/07 11:32:31;;;;;;;3.28;1.58;;;10.90;99.90;;;;;;5043668;28;20443;-64
2023/01/07 11:35:00;;;;;;;3.03;0.88;;;10.90;99.90;;;;;;5043506;28;20376;-63
2023/01/07 11:37:40;;;;;;;3.20;1.50;;;10.90;99.90;;;;;;5025319;28;20851;-63
2023/01/07 11:40:19;;;;;;;1.23;0.90;;;10.90;99.90;;;;;;5043369;28;20116;-63
2023/01/07 11:42:54;;;;;;;4.13;1.00;;;11.00;74.40;;;;;;5008534;28;20052;-64
2023/01/07 11:45:35;;;;;;;2.55;1.10;;;11.00;92.10;;;;;;5008862;28;20044;-64
2023/01/07 11:48:13;;;;;;;3.53;1.10;;;11.00;99.90;;;;;;5024861;28;20493;-64
2023/01/07 11:50:43;;;;;;;1.20;0.82;;;11.00;67.00;;;;;;5008776;28;20128;-64
2023/01/07 11:53:14;;;;;;;3.40;0.80;;;11.10;88.90;;;;;;5024930;28;20044;-64
2023/01/07 11:56:08;;;;;;;1.45;0.68;;;11.10;57.80;;;;;;5043228;28;20041;-64
2023/01/07 11:58:37;;;;;;;2.50;0.68;;;11.10;1.00;;;;;;5024822;28;20132;-64
2023/01/07 12:01:06;;;;;;;1.60;0.70;;;11.10;5.20;;;;;;5008630;28;20045;-65
2023/01/07 12:03:32;;;;;;;1.00;0.55;;;11.10;1.00;;;;;;5043278;28;20052;-65
2023/01/07 12:06:22;;;;;;;1.70;0.90;;;11.10;10.60;;;;;;5007806;28;20053;-65
2023/01/07 12:09:01;;;;;;;2.05;0.65;;;11.20;1.00;;;;;;5028441;28;20508;-65
2023/01/07 12:11:33;;;;;;;2.83;0.68;;;11.10;1.00;;;;;;5040528;28;20103;-64
2023/01/07 12:14:06;;;;;;;2.65;0.80;;;11.20;1.00;;;;;;5024239;28;20136;-64
2023/01/07 12:16:33;;;;;;;2.63;0.60;;;11.10;1.00;;;;;;5024421;28;20056;-64
2023/01/07 12:19:30;;;;;;;2.15;0.70;;;11.10;1.00;;;;;;5008029;28;20502;-64
2023/01/07 12:21:55;;;;;;;2.22;0.50;;;11.10;1.00;;;;;;5024312;28;20260;-63
2023/01/07 12:24:36;;;;;;;2.58;0.60;;;11.10;1.00;;;;;;5042186;28;20049;-64
2023/01/07 12:27:14;;;;;;;1.60;0.57;;;11.10;1.00;;;;;;5023394;28;20049;-64
2023/01/07 12:29:52;;;;;;;1.13;0.52;;;11.10;1.00;;;;;;5037443;28;20045;-65
2023/01/07 12:32:33;;;;;;;1.55;0.50;;;11.10;1.00;;;;;;5054974;28;20051;-65
2023/01/07 12:35:12;;;;;;;1.00;0.40;;;11.10;1.00;;;;;;5023757;28;20094;-65
2023/01/07 12:37:40;;;;;;;1.25;0.60;;;11.00;1.00;;;;;;5023295;28;20335;-64
2023/01/07 12:40:09;;;;;;;3.15;0.75;;;11.10;1.00;;;;;;5008804;28;20040;-63
2023/01/07 12:42:39;;;;;;;1.63;0.60;;;11.10;1.00;;;;;;5041621;28;20049;-64
2023/01/07 12:45:12;;;;;;;1.98;0.70;;;11.10;1.00;;;;;;5023726;28;20495;-64
2023/01/07 12:47:50;;;;;;;2.20;0.70;;;11.10;1.00;;;;;;5023472;28;20564;-65
2023/01/07 12:50:23;;;;;;;1.33;0.57;;;11.10;1.00;;;;;;5041155;28;20430;-64
2023/01/07 12:52:56;;;;;;;;;;;11.20;1.00;;;;;;5023449;28;20503;-65
2023/01/07 12:55:33;;;;;;;2.20;0.60;;;11.20;99.90;;;;;;5041731;28;19932;-64
2023/01/07 12:58:17;;;;;;;2.55;0.63;;;11.20;99.90;;;;;;5006989;28;20047;-65